Time;durP1;ratioP1;P1;durP2;ratioP2;P2;SDS_P1;SDS_P2;PMS_P1;PMS_P2;Temp;Humidity;BMP_temperature;BMP_pressure;BME280_temperature;BME280_humidity;BME280_pressure;Samples;Min_cycle;Max_cycle;Signal;HPM_P1;HPM_P2
2022/05/22 00:00:12;;;;;;;13.77;9.45;;;23.40;99.90;;;;;;5048858;28;20065;-87
2022/05/22 00:02:39;;;;;;;14.00;9.85;;;23.70;99.90;;;;;;5051877;28;20043;-87
2022/05/22 00:05:07;;;;;;;12.80;9.27;;;23.60;99.90;;;;;;5050809;28;20025;-87
2022/05/22 00:07:32;;;;;;;13.57;9.95;;;23.60;99.90;;;;;;5043331;28;20106;-88
2022/05/22 00:09:58;;;;;;;11.80;9.60;;;23.40;99.90;;;;;;5044532;28;20024;-87
2022/05/22 00:12:23;;;;;;;10.30;9.23;;;23.50;99.90;;;;;;5044761;28;20024;-87
2022/05/22 00:14:49;;;;;;;13.00;9.40;;;23.40;99.90;;;;;;5045241;28;20034;-87
2022/05/22 00:17:15;;;;;;;13.23;9.80;;;23.10;99.90;;;;;;5084510;28;20071;-87
2022/05/22 00:19:40;;;;;;;11.23;9.95;;;23.10;99.90;;;;;;5039669;28;20055;-87
2022/05/22 00:22:07;;;;;;;12.02;10.18;;;23.30;99.90;;;;;;5036031;28;20029;-87
2022/05/22 00:24:33;;;;;;;12.70;10.23;;;23.60;99.90;;;;;;5040057;28;20037;-87
2022/05/22 00:27:03;;;;;;;13.90;9.80;;;23.60;99.90;;;;;;5040124;28;20048;-87
2022/05/22 00:29:30;;;;;;;12.40;9.93;;;23.60;99.90;;;;;;5056680;28;20427;-87
2022/05/22 00:31:57;;;;;;;11.93;9.60;;;23.40;99.90;;;;;;5036963;28;20021;-87
2022/05/22 00:34:23;;;;;;;13.90;10.00;;;23.50;99.90;;;;;;5039715;28;20505;-87
2022/05/22 00:36:48;;;;;;;13.23;10.05;;;23.60;99.90;;;;;;5039543;28;20052;-87
2022/05/22 00:39:14;;;;;;;15.48;9.70;;;23.80;99.90;;;;;;5039833;28;20028;-88
2022/05/22 00:41:41;;;;;;;10.98;9.60;;;23.70;99.90;;;;;;5037656;28;20616;-86
2022/05/22 00:44:07;;;;;;;12.50;9.88;;;23.60;99.90;;;;;;5060537;28;20127;-87
2022/05/22 00:46:33;;;;;;;12.48;9.82;;;23.70;99.90;;;;;;5038824;28;20075;-87
2022/05/22 00:49:06;;;;;;;11.52;10.05;;;23.70;99.90;;;;;;5039393;28;20435;-87
2022/05/22 00:51:58;;;;;;;13.55;10.43;;;23.30;99.90;;;;;;5035036;28;20040;-87
2022/05/22 00:54:34;;;;;;;14.43;9.63;;;23.00;99.90;;;;;;5040428;28;20100;-88
2022/05/22 00:57:22;;;;;;;11.75;9.75;;;23.20;99.90;;;;;;5045535;28;20072;-87
2022/05/22 00:59:56;;;;;;;12.80;9.85;;;23.00;99.90;;;;;;5059473;28;20026;-88
2022/05/22 01:02:22;;;;;;;12.13;10.05;;;23.20;99.90;;;;;;5033760;28;20440;-87
2022/05/22 01:04:49;;;;;;;11.70;10.43;;;23.20;99.90;;;;;;5038367;28;20080;-87
2022/05/22 01:07:16;;;;;;;13.50;10.15;;;23.00;99.90;;;;;;5033796;28;20490;-87
2022/05/22 01:09:42;;;;;;;13.98;10.75;;;22.70;99.90;;;;;;5037882;28;20037;-87
2022/05/22 01:12:20;;;;;;;14.98;10.52;;;22.90;99.90;;;;;;5037595;28;20032;-87
2022/05/22 01:14:48;;;;;;;11.75;9.77;;;22.90;99.90;;;;;;5058363;28;20524;-86
2022/05/22 01:17:14;;;;;;;11.45;10.27;;;22.60;99.90;;;;;;5049499;28;20036;-87
2022/05/22 01:19:40;;;;;;;13.88;10.07;;;22.70;99.90;;;;;;5053756;28;20032;-87
2022/05/22 01:22:09;;;;;;;12.07;10.82;;;22.60;99.90;;;;;;5040720;28;20398;-87
2022/05/22 01:24:36;;;;;;;13.75;10.45;;;22.40;99.90;;;;;;5070886;28;20120;-86
2022/05/22 01:27:05;;;;;;;13.85;10.93;;;22.40;99.90;;;;;;5038400;28;20021;-87
2022/05/22 01:29:31;;;;;;;14.00;10.85;;;22.30;99.90;;;;;;5047666;28;20108;-87
2022/05/22 01:31:57;;;;;;;12.00;10.80;;;22.10;99.90;;;;;;5033964;28;20110;-86
2022/05/22 01:34:23;;;;;;;13.70;10.77;;;22.00;99.90;;;;;;5047426;28;20060;-87
2022/05/22 01:36:48;;;;;;;15.05;10.45;;;22.20;99.90;;;;;;5045743;28;20033;-87
2022/05/22 01:39:14;;;;;;;12.73;10.18;;;22.30;99.90;;;;;;5046694;28;20021;-87
2022/05/22 01:41:40;;;;;;;12.10;10.80;;;22.20;99.90;;;;;;5049019;28;20041;-87
2022/05/22 01:44:06;;;;;;;13.38;10.43;;;22.30;99.90;;;;;;5063191;28;20366;-86
2022/05/22 01:46:31;;;;;;;12.65;11.25;;;22.40;99.90;;;;;;5047305;28;20077;-87
2022/05/22 01:48:57;;;;;;;13.50;10.95;;;22.10;99.90;;;;;;5049345;28;20493;-87
2022/05/22 01:51:24;;;;;;;16.58;11.35;;;22.20;99.90;;;;;;5045998;28;20025;-87
2022/05/22 01:53:50;;;;;;;14.05;10.88;;;22.20;99.90;;;;;;5049642;28;20423;-87
2022/05/22 01:56:16;;;;;;;12.85;11.02;;;22.10;99.90;;;;;;5034786;28;20037;-87
2022/05/22 01:58:41;;;;;;;11.50;10.32;;;22.10;99.90;;;;;;5050864;28;20017;-87
2022/05/22 02:01:08;;;;;;;13.38;11.10;;;22.40;99.90;;;;;;5046393;28;20162;-87
2022/05/22 02:03:34;;;;;;;18.00;10.82;;;22.30;99.90;;;;;;5045288;28;20040;-86
2022/05/22 02:06:00;;;;;;;14.60;11.95;;;22.40;99.90;;;;;;5035513;28;20025;-87
2022/05/22 02:08:26;;;;;;;11.73;10.50;;;22.50;99.90;;;;;;5050686;28;20034;-87
2022/05/22 02:10:58;;;;;;;12.10;10.38;;;22.60;99.90;;;;;;5048911;28;20511;-87
2022/05/22 02:13:28;;;;;;;12.48;10.80;;;22.60;99.90;;;;;;5058243;28;20029;-87
2022/05/22 02:15:54;;;;;;;12.20;10.93;;;22.50;99.90;;;;;;5037117;28;20103;-87
2022/05/22 02:18:20;;;;;;;11.80;10.30;;;22.40;99.90;;;;;;5037543;28;20033;-87
2022/05/22 02:20:47;;;;;;;18.08;11.50;;;22.10;99.90;;;;;;5036584;28;20035;-87
2022/05/22 02:23:15;;;;;;;13.88;11.55;;;22.20;99.90;;;;;;5034039;28;20037;-87
2022/05/22 02:25:44;;;;;;;12.60;11.38;;;22.30;99.90;;;;;;5048076;28;20075;-87
2022/05/22 02:28:14;;;;;;;17.42;11.63;;;22.10;99.90;;;;;;5051065;28;20112;-87
2022/05/22 02:30:42;;;;;;;14.15;10.90;;;22.00;99.90;;;;;;5044563;28;20087;-87
2022/05/22 02:33:09;;;;;;;14.00;10.55;;;22.00;99.90;;;;;;5037601;28;20017;-87
2022/05/22 02:35:35;;;;;;;13.68;10.00;;;22.10;99.90;;;;;;5048731;28;20057;-87
2022/05/22 02:38:01;;;;;;;11.82;10.60;;;22.10;99.90;;;;;;5034135;28;20056;-87
2022/05/22 02:40:29;;;;;;;17.23;10.88;;;21.90;99.90;;;;;;5047915;28;20067;-87
2022/05/22 02:42:55;;;;;;;11.50;10.32;;;21.90;99.90;;;;;;5040154;28;20033;-86
2022/05/22 02:45:23;;;;;;;12.95;11.40;;;21.70;99.90;;;;;;5072496;28;20036;-88
2022/05/22 02:47:49;;;;;;;12.45;11.13;;;21.90;99.90;;;;;;5048983;28;20029;-87
2022/05/22 02:50:18;;;;;;;13.30;11.10;;;21.60;99.90;;;;;;5033102;28;20425;-87
2022/05/22 02:52:43;;;;;;;13.40;12.00;;;21.60;99.90;;;;;;5046432;28;20089;-87
2022/05/22 02:55:09;;;;;;;13.82;11.57;;;21.70;99.90;;;;;;5045470;28;20112;-87
2022/05/22 02:57:36;;;;;;;13.95;11.27;;;21.70;99.90;;;;;;5042511;28;20558;-87
2022/05/22 03:00:06;;;;;;;14.30;12.00;;;21.70;99.90;;;;;;5047904;28;20470;-87
2022/05/22 03:02:31;;;;;;;15.27;12.23;;;21.60;99.90;;;;;;5039112;28;20502;-87
2022/05/22 03:04:57;;;;;;;15.88;12.00;;;21.60;99.90;;;;;;5034749;28;20033;-86
2022/05/22 03:07:23;;;;;;;13.90;11.90;;;21.50;99.90;;;;;;5078516;28;20590;-87
2022/05/22 03:09:49;;;;;;;15.65;12.90;;;21.30;99.90;;;;;;5048500;28;20039;-87
2022/05/22 03:12:18;;;;;;;14.18;12.70;;;20.80;99.90;;;;;;5046226;28;20025;-87
2022/05/22 03:14:50;;;;;;;15.73;13.00;;;20.60;99.90;;;;;;5035037;28;20042;-87
2022/05/22 03:17:16;;;;;;;14.48;12.57;;;20.60;99.90;;;;;;5043076;28;20036;-87
2022/05/22 03:19:42;;;;;;;15.23;12.48;;;20.80;99.90;;;;;;5051539;28;20116;-87
2022/05/22 03:22:09;;;;;;;13.73;12.38;;;21.00;99.90;;;;;;5037783;28;20109;-86
2022/05/22 03:24:35;;;;;;;14.40;12.20;;;21.20;99.90;;;;;;5039281;28;20114;-87
2022/05/22 03:27:03;;;;;;;14.55;12.45;;;21.20;99.90;;;;;;5047566;28;20500;-87
2022/05/22 03:29:29;;;;;;;16.08;12.68;;;21.10;99.90;;;;;;5033517;28;20029;-87
2022/05/22 03:31:54;;;;;;;16.35;13.02;;;21.10;99.90;;;;;;5049616;28;20033;-86
2022/05/22 03:34:20;;;;;;;15.55;12.80;;;21.40;99.90;;;;;;5043395;28;20037;-87
2022/05/22 03:36:45;;;;;;;14.60;12.60;;;21.50;99.90;;;;;;5037041;28;20049;-87
2022/05/22 03:39:11;;;;;;;13.10;11.90;;;21.50;99.90;;;;;;5038039;28;20497;-86
2022/05/22 03:41:37;;;;;;;13.05;11.75;;;21.10;99.90;;;;;;5047985;28;20082;-86
2022/05/22 03:44:05;;;;;;;14.43;12.77;;;20.70;99.90;;;;;;5046488;28;20045;-87
2022/05/22 03:46:31;;;;;;;14.15;12.00;;;20.60;99.90;;;;;;5052283;28;20082;-87
2022/05/22 03:48:57;;;;;;;16.67;12.52;;;21.00;99.90;;;;;;5051917;28;20025;-87
2022/05/22 03:51:22;;;;;;;14.18;12.30;;;21.30;99.90;;;;;;5052804;28;20021;-87
2022/05/22 03:53:48;;;;;;;14.98;12.55;;;21.30;99.90;;;;;;5046478;28;20021;-86
2022/05/22 03:56:16;;;;;;;13.65;12.07;;;21.00;99.90;;;;;;5048417;28;20037;-87
2022/05/22 03:58:43;;;;;;;14.43;11.70;;;21.00;99.90;;;;;;5035693;28;20026;-86
2022/05/22 04:01:08;;;;;;;14.00;11.52;;;21.20;99.90;;;;;;5037071;28;20036;-87
2022/05/22 04:03:35;;;;;;;13.27;11.88;;;21.30;99.90;;;;;;5051216;28;20397;-87
2022/05/22 04:06:02;;;;;;;13.02;11.40;;;21.30;99.90;;;;;;5079778;28;20032;-87
2022/05/22 04:08:29;;;;;;;14.27;11.50;;;21.30;99.90;;;;;;5034790;28;20032;-86
2022/05/22 04:10:54;;;;;;;17.80;11.25;;;21.50;99.90;;;;;;5035541;28;20022;-86
2022/05/22 04:13:20;;;;;;;13.43;11.55;;;21.60;99.90;;;;;;5045706;28;20036;-87
2022/05/22 04:15:46;;;;;;;14.50;11.68;;;21.50;99.90;;;;;;5047079;28;20043;-87
2022/05/22 04:18:13;;;;;;;12.80;11.27;;;21.60;99.90;;;;;;5043674;28;20029;-87
2022/05/22 04:20:38;;;;;;;15.15;11.73;;;21.50;99.90;;;;;;5038145;28;20025;-87
2022/05/22 04:25:54;;;;;;;12.98;11.70;;;21.30;99.90;;;;;;5050619;28;20109;-87
2022/05/22 04:28:20;;;;;;;16.63;12.02;;;21.40;99.90;;;;;;5048195;28;20517;-87
2022/05/22 04:30:46;;;;;;;14.27;12.45;;;21.10;99.90;;;;;;5048251;28;20029;-87
2022/05/22 04:33:11;;;;;;;13.30;11.57;;;21.10;99.90;;;;;;5053781;28;20030;-87
2022/05/22 04:35:37;;;;;;;14.07;12.05;;;21.30;99.90;;;;;;5049065;28;20045;-87
2022/05/22 04:38:03;;;;;;;13.68;11.60;;;21.30;99.90;;;;;;5037189;28;20032;-87
2022/05/22 04:40:29;;;;;;;16.38;11.73;;;21.10;99.90;;;;;;5037782;28;20025;-87
2022/05/22 04:42:55;;;;;;;13.45;11.35;;;21.20;99.90;;;;;;5071368;28;20025;-87
2022/05/22 04:45:21;;;;;;;15.55;10.90;;;21.40;99.90;;;;;;5041241;28;20052;-93
2022/05/22 04:47:47;;;;;;;16.60;11.23;;;21.50;99.90;;;;;;5058465;28;20512;-96
2022/05/22 04:50:15;;;;;;;16.02;10.32;;;21.10;99.90;;;;;;5070696;28;20037;-94
2022/05/22 04:52:41;;;;;;;14.00;11.30;;;21.30;99.90;;;;;;5039604;28;20056;-93
2022/05/22 04:55:08;;;;;;;15.35;11.70;;;21.40;99.90;;;;;;5073724;28;20478;-95
2022/05/22 04:57:34;;;;;;;12.27;10.98;;;21.40;99.90;;;;;;5045320;28;20033;-93
2022/05/22 04:59:59;;;;;;;13.15;10.93;;;21.10;99.90;;;;;;5084698;28;20055;-93
2022/05/22 05:02:25;;;;;;;12.82;11.02;;;21.10;99.90;;;;;;5056317;28;20043;-93
2022/05/22 05:05:00;;;;;;;11.13;9.93;;;21.30;99.90;;;;;;5084103;28;20079;-93
2022/05/22 05:07:26;;;;;;;14.75;10.80;;;21.40;99.90;;;;;;5047270;28;20374;-95
2022/05/22 05:09:52;;;;;;;12.70;11.35;;;21.20;99.90;;;;;;5048848;28;20054;-93
2022/05/22 05:12:19;;;;;;;37.08;24.52;;;21.10;99.90;;;;;;5049908;28;20033;-96
2022/05/22 05:14:46;;;;;;;71.90;45.78;;;21.10;99.90;;;;;;5051005;28;20037;-95
2022/05/22 05:17:18;;;;;;;29.50;21.40;;;21.00;99.90;;;;;;5035397;28;20033;-94
2022/05/22 05:19:45;;;;;;;28.52;22.33;;;21.20;99.90;;;;;;5072007;28;20033;-95
2022/05/22 05:22:11;;;;;;;13.48;11.85;;;21.50;99.90;;;;;;5040711;28;20026;-95
2022/05/22 05:24:37;;;;;;;13.90;10.82;;;21.60;99.90;;;;;;5072621;28;20044;-96
2022/05/22 05:27:03;;;;;;;17.67;11.43;;;21.50;99.90;;;;;;5037206;28;20026;-94
2022/05/22 05:29:29;;;;;;;12.77;11.27;;;21.40;99.90;;;;;;5035177;28;20060;-86
2022/05/22 05:31:55;;;;;;;12.23;10.93;;;21.40;99.90;;;;;;5053209;28;20036;-87
2022/05/22 05:34:20;;;;;;;12.82;11.35;;;21.40;99.90;;;;;;5047315;28;20041;-86
2022/05/22 05:36:46;;;;;;;17.55;11.13;;;21.50;99.90;;;;;;5046989;28;20029;-87
2022/05/22 05:39:12;;;;;;;13.13;11.05;;;21.40;99.90;;;;;;5046663;28;20562;-87
2022/05/22 05:41:38;;;;;;;14.60;11.45;;;21.50;99.90;;;;;;5035600;28;20036;-87
2022/05/22 05:44:06;;;;;;;12.27;11.07;;;21.50;99.90;;;;;;5036186;28;20438;-86
2022/05/22 05:46:38;;;;;;;15.13;11.40;;;21.50;99.90;;;;;;5086545;28;20105;-86
2022/05/22 05:49:06;;;;;;;13.43;12.02;;;21.50;99.90;;;;;;5046509;28;20094;-87
2022/05/22 05:51:32;;;;;;;14.23;11.55;;;21.50;99.90;;;;;;5046757;28;20028;-87
2022/05/22 05:53:58;;;;;;;13.00;11.13;;;21.50;99.90;;;;;;5049678;28;20033;-86
2022/05/22 05:56:24;;;;;;;12.77;11.30;;;21.60;99.90;;;;;;5034713;28;20112;-86
2022/05/22 05:58:51;;;;;;;13.75;11.20;;;21.70;99.90;;;;;;5037566;28;20048;-87
2022/05/22 06:01:20;;;;;;;12.77;11.48;;;21.70;99.90;;;;;;5047756;28;20067;-86
2022/05/22 06:03:46;;;;;;;15.23;12.32;;;21.80;99.90;;;;;;5050451;28;20139;-85
2022/05/22 06:06:14;;;;;;;15.93;13.18;;;21.80;99.90;;;;;;5054193;28;20112;-88
2022/05/22 06:08:40;;;;;;;14.43;12.13;;;21.80;99.90;;;;;;5049842;28;20078;-88
2022/05/22 06:11:07;;;;;;;15.88;12.88;;;22.00;99.90;;;;;;5047499;28;20056;-90
2022/05/22 06:13:33;;;;;;;13.88;11.43;;;22.10;99.90;;;;;;5046773;28;20243;-89
2022/05/22 06:15:58;;;;;;;15.13;13.35;;;22.20;99.90;;;;;;5046585;28;20397;-89
2022/05/22 06:18:24;;;;;;;14.80;12.20;;;22.30;99.90;;;;;;5048630;28;20159;-89
2022/05/22 06:20:50;;;;;;;17.35;13.95;;;22.40;99.90;;;;;;5046419;28;20060;-89
2022/05/22 06:23:16;;;;;;;18.55;13.48;;;22.40;99.90;;;;;;5049517;28;20045;-89
2022/05/22 06:25:44;;;;;;;14.73;13.23;;;22.70;99.90;;;;;;5048566;28;20481;-89
2022/05/22 06:28:11;;;;;;;15.40;13.25;;;23.00;99.90;;;;;;5046146;28;20044;-89
2022/05/22 06:30:37;;;;;;;17.63;14.13;;;22.90;99.90;;;;;;5043848;28;20083;-88
2022/05/22 06:33:10;;;;;;;17.17;13.45;;;23.10;99.90;;;;;;5042415;28;20036;-89
2022/05/22 06:35:40;;;;;;;15.60;11.85;;;23.20;99.90;;;;;;5049075;28;20050;-89
2022/05/22 06:38:06;;;;;;;13.93;12.15;;;23.10;99.90;;;;;;5035029;28;20105;-89
2022/05/22 06:40:32;;;;;;;13.30;11.68;;;23.20;99.90;;;;;;5037389;28;20029;-89
2022/05/22 06:43:01;;;;;;;13.50;11.60;;;23.30;99.90;;;;;;5043816;28;20132;-89
2022/05/22 06:45:27;;;;;;;12.00;10.63;;;23.50;99.90;;;;;;5044680;28;20017;-87
2022/05/22 06:47:53;;;;;;;15.57;11.75;;;23.40;99.90;;;;;;5045606;28;20132;-87
2022/05/22 06:50:22;;;;;;;18.33;11.65;;;23.30;99.90;;;;;;5048470;28;20468;-87
2022/05/22 06:52:47;;;;;;;16.60;11.43;;;23.50;99.90;;;;;;5036333;28;20378;-87
2022/05/22 06:55:14;;;;;;;15.32;12.40;;;23.60;99.90;;;;;;5045312;28;20033;-88
2022/05/22 06:57:40;;;;;;;12.18;10.98;;;23.60;99.90;;;;;;5045147;28;20405;-87
2022/05/22 07:00:09;;;;;;;14.70;11.23;;;23.80;99.90;;;;;;5044403;28;20017;-87
2022/05/22 07:02:36;;;;;;;12.73;11.23;;;23.60;99.90;;;;;;5080820;28;20060;-86
2022/05/22 07:05:03;;;;;;;13.10;11.50;;;23.60;99.90;;;;;;5049189;28;20090;-87
2022/05/22 07:07:29;;;;;;;16.48;12.07;;;23.60;99.90;;;;;;5046595;28;20115;-87
2022/05/22 07:09:55;;;;;;;13.15;11.60;;;23.70;99.90;;;;;;5045671;28;20040;-87
2022/05/22 07:12:21;;;;;;;15.80;11.30;;;23.80;99.90;;;;;;5045706;28;20021;-88
2022/05/22 07:14:50;;;;;;;14.90;12.05;;;23.80;99.90;;;;;;5049078;28;20482;-85
2022/05/22 07:17:21;;;;;;;13.20;11.30;;;23.90;99.90;;;;;;5033837;28;20040;-89
2022/05/22 07:19:47;;;;;;;12.57;11.35;;;23.90;99.90;;;;;;5059573;28;20028;-86
2022/05/22 07:22:13;;;;;;;13.02;10.68;;;24.00;99.90;;;;;;5050179;28;20036;-84
2022/05/22 07:24:38;;;;;;;15.60;12.20;;;23.90;99.90;;;;;;5045263;28;20041;-82
2022/05/22 07:27:05;;;;;;;12.50;10.95;;;24.10;99.90;;;;;;5045888;28;20049;-91
2022/05/22 07:29:30;;;;;;;12.88;10.73;;;24.10;99.90;;;;;;5051640;28;20037;-92
2022/05/22 07:31:57;;;;;;;15.10;11.45;;;24.30;99.90;;;;;;5057555;28;20028;-92
2022/05/22 07:34:24;;;;;;;14.02;11.32;;;24.10;99.90;;;;;;5040392;28;20054;-93
2022/05/22 07:36:57;;;;;;;14.73;10.43;;;24.30;99.90;;;;;;5038245;28;20033;-94
2022/05/22 07:39:24;;;;;;;14.93;12.18;;;24.50;99.90;;;;;;5073139;28;20021;-93
2022/05/22 07:41:49;;;;;;;13.52;10.98;;;24.50;99.90;;;;;;5059436;28;20120;-91
2022/05/22 07:44:15;;;;;;;14.32;10.82;;;24.60;99.90;;;;;;5048462;28;20135;-94
2022/05/22 07:46:41;;;;;;;13.60;11.05;;;24.70;99.90;;;;;;5078549;28;20030;-93
2022/05/22 07:49:07;;;;;;;12.35;10.48;;;24.90;99.90;;;;;;5082767;28;20485;-90
2022/05/22 07:51:32;;;;;;;12.23;9.77;;;25.00;99.90;;;;;;5056316;28;20025;-92
2022/05/22 07:53:58;;;;;;;12.02;10.70;;;24.70;99.90;;;;;;5053063;28;20035;-91
2022/05/22 07:56:24;;;;;;;14.45;10.93;;;24.50;99.90;;;;;;5037398;28;20029;-91
2022/05/22 07:58:50;;;;;;;12.13;10.15;;;24.80;99.90;;;;;;5040266;28;20097;-93
2022/05/22 08:01:17;;;;;;;14.85;10.93;;;25.30;99.90;;;;;;5079570;28;20079;-92
2022/05/22 08:03:43;;;;;;;13.57;10.73;;;25.50;99.90;;;;;;5048136;28;20517;-92
2022/05/22 08:06:09;;;;;;;12.02;10.18;;;25.60;99.90;;;;;;5041416;28;20024;-92
2022/05/22 08:08:35;;;;;;;13.45;10.00;;;25.80;99.90;;;;;;5038578;28;20087;-90
2022/05/22 08:11:01;;;;;;;11.95;10.40;;;25.70;99.90;;;;;;5039559;28;20033;-90
2022/05/22 08:13:27;;;;;;;15.07;10.60;;;25.40;99.90;;;;;;5040508;28;20075;-90
2022/05/22 08:15:53;;;;;;;12.45;10.23;;;25.70;99.90;;;;;;5045146;28;20028;-93
2022/05/22 08:18:19;;;;;;;12.82;10.25;;;26.40;99.90;;;;;;5081546;28;20072;-92
2022/05/22 08:20:46;;;;;;;67.47;26.10;;;26.70;99.90;;;;;;5051075;28;20082;-89
2022/05/22 08:23:18;;;;;;;12.90;10.65;;;27.10;99.90;;;;;;5051580;28;20413;-90
2022/05/22 08:25:44;;;;;;;17.92;10.88;;;26.60;99.90;;;;;;5040485;28;20394;-90
2022/05/22 08:28:10;;;;;;;62.97;23.88;;;27.20;99.90;;;;;;5041142;28;20041;-90
2022/05/22 08:30:36;;;;;;;13.13;9.93;;;27.70;99.90;;;;;;5070392;28;20030;-89
2022/05/22 08:33:02;;;;;;;13.95;9.23;;;27.90;99.90;;;;;;5058843;28;20075;-91
2022/05/22 08:35:31;;;;;;;12.55;8.32;;;27.20;99.90;;;;;;5050529;28;20041;-91
2022/05/22 08:37:58;;;;;;;13.23;8.63;;;27.60;99.90;;;;;;5038406;28;20125;-90
2022/05/22 08:40:25;;;;;;;11.93;9.07;;;27.90;99.90;;;;;;5040827;28;20467;-90
2022/05/22 08:43:47;;;;;;;11.43;8.32;;;28.00;99.90;;;;;;5040415;28;20478;-88
2022/05/22 08:46:41;;;;;;;16.35;8.45;;;28.20;99.90;;;;;;5009980;28;20040;-91
2022/05/22 08:49:20;;;;;;;13.00;8.45;;;28.10;99.90;;;;;;5039567;28;20326;-90
2022/05/22 08:51:50;;;;;;;11.02;7.78;;;28.00;99.90;;;;;;5005304;28;20034;-90
2022/05/22 08:54:27;;;;;;;11.05;7.90;;;28.50;99.90;;;;;;5023151;28;20052;-90
2022/05/22 08:59:42;;;;;;;10.50;7.88;;;29.10;99.90;;;;;;5032529;28;20104;-91
2022/05/22 09:02:14;;;;;;;14.25;10.30;;;29.30;99.90;;;;;;5031822;28;20067;-91
2022/05/22 09:05:06;;;;;;;12.57;10.32;;;29.50;99.90;;;;;;5033560;28;20034;-91
2022/05/22 09:07:44;;;;;;;13.38;10.10;;;29.20;99.90;;;;;;5033269;28;20034;-89
2022/05/22 09:10:19;;;;;;;12.73;9.40;;;29.40;99.90;;;;;;5032767;28;20034;-91
2022/05/22 09:13:11;;;;;;;11.35;9.98;;;29.50;99.90;;;;;;5012820;28;20406;-90
2022/05/22 09:15:49;;;;;;;12.68;9.55;;;29.50;99.90;;;;;;5010023;28;20038;-88
2022/05/22 09:18:33;;;;;;;15.20;9.75;;;29.60;99.90;;;;;;5020966;28;20037;-91
2022/05/22 09:21:24;;;;;;;10.43;9.30;;;29.80;99.90;;;;;;5010030;28;20033;-90
2022/05/22 09:23:58;;;;;;;11.45;8.93;;;29.70;99.90;;;;;;5082052;28;20045;-90
2022/05/22 09:26:44;;;;;;;10.57;9.25;;;29.60;99.90;;;;;;5034953;28;20052;-90
2022/05/22 09:29:19;;;;;;;12.30;8.93;;;29.70;99.90;;;;;;5052271;28;20025;-90
2022/05/22 09:32:25;;;;;;;11.63;8.90;;;29.70;99.90;;;;;;5049949;28;20486;-91
2022/05/22 09:35:11;;;;;;;13.32;9.18;;;30.10;99.90;;;;;;5050330;28;20048;-89
2022/05/22 09:37:42;;;;;;;9.15;8.02;;;30.50;99.90;;;;;;5052875;28;20037;-91
2022/05/22 09:40:29;;;;;;;11.98;8.90;;;29.80;99.90;;;;;;5043754;28;20022;-91
2022/05/22 09:43:11;;;;;;;13.30;8.50;;;30.00;99.90;;;;;;5066807;28;20098;-89
2022/05/22 09:45:46;;;;;;;13.88;9.07;;;30.30;99.90;;;;;;5055038;28;20035;-90
2022/05/22 09:48:17;;;;;;;14.45;8.70;;;30.50;99.90;;;;;;5044312;28;20045;-91
2022/05/22 09:51:15;;;;;;;13.02;9.82;;;30.70;99.90;;;;;;5050615;28;20040;-90
2022/05/22 09:53:46;;;;;;;10.70;8.35;;;30.50;99.90;;;;;;5018319;28;20125;-91
2022/05/22 09:56:12;;;;;;;10.88;8.98;;;30.90;99.90;;;;;;5030380;28;20072;-88
2022/05/22 09:58:46;;;;;;;12.00;7.60;;;31.50;99.90;;;;;;5028610;28;20026;-88
2022/05/22 10:01:30;;;;;;;11.55;8.15;;;31.70;99.90;;;;;;5019731;28;20116;-88
2022/05/22 10:04:16;;;;;;;11.85;7.38;;;31.90;99.90;;;;;;5018745;28;20049;-85
2022/05/22 10:07:03;;;;;;;10.90;7.30;;;31.90;99.90;;;;;;5020914;28;20036;-87
2022/05/22 10:10:11;;;;;;;10.85;7.40;;;31.80;99.90;;;;;;5019451;28;20080;-89
2022/05/22 10:12:48;;;;;;;11.35;6.95;;;31.80;99.90;;;;;;4978071;28;20043;-88
2022/05/22 10:15:14;;;;;;;13.13;7.00;;;31.70;99.90;;;;;;4979534;28;20085;-85
2022/05/22 10:17:54;;;;;;;12.35;7.13;;;32.30;99.90;;;;;;4977048;28;20050;-88
2022/05/22 10:20:43;;;;;;;11.38;6.78;;;32.10;99.90;;;;;;4975198;28;20030;-88
2022/05/22 10:23:40;;;;;;;11.25;7.57;;;32.40;99.90;;;;;;4982857;28;20144;-88
2022/05/22 10:26:33;;;;;;;8.60;7.22;;;32.70;99.90;;;;;;4984519;28;20506;-89
2022/05/22 10:29:05;;;;;;;10.55;7.18;;;32.20;99.90;;;;;;4975172;28;20073;-89
2022/05/22 10:31:56;;;;;;;11.57;7.40;;;32.20;99.90;;;;;;4994827;28;20038;-96
2022/05/22 10:34:36;;;;;;;9.93;6.53;;;32.10;99.90;;;;;;4990747;28;20526;-95
2022/05/22 10:37:20;;;;;;;10.38;7.25;;;32.30;99.90;;;;;;4991873;28;20035;-92
2022/05/22 10:39:46;;;;;;;12.05;7.10;;;32.50;99.90;;;;;;4975070;28;20026;-92
2022/05/22 10:45:13;;;;;;;10.23;7.10;;;32.40;99.90;;;;;;5057134;28;20120;-91
2022/05/22 10:47:38;;;;;;;11.77;6.90;;;32.50;99.90;;;;;;5048291;28;20025;-91
2022/05/22 10:50:20;;;;;;;11.57;6.70;;;32.70;99.90;;;;;;5049368;28;20108;-91
2022/05/22 10:52:47;;;;;;;8.30;7.05;;;33.10;99.90;;;;;;5037179;28;20135;-95
2022/05/22 10:55:25;;;;;;;12.23;6.90;;;32.80;99.90;;;;;;5037732;28;20036;-93
2022/05/22 10:58:00;;;;;;;10.23;6.55;;;33.10;99.90;;;;;;5035244;28;20029;-92
2022/05/22 11:00:26;;;;;;;9.65;7.05;;;33.40;99.90;;;;;;5038311;28;20074;-95
2022/05/22 11:02:52;;;;;;;7.30;6.40;;;33.70;99.90;;;;;;5037878;28;20039;-95
2022/05/22 11:05:27;;;;;;;9.15;6.88;;;33.60;99.90;;;;;;5034408;28;20034;-94
2022/05/22 11:07:56;;;;;;;12.55;6.95;;;33.40;99.90;;;;;;5050157;28;20064;-93
2022/05/22 11:10:34;;;;;;;11.18;6.88;;;33.70;99.90;;;;;;5040998;28;20040;-96
2022/05/22 11:13:12;;;;;;;10.57;6.78;;;33.90;99.90;;;;;;5047378;28;20107;-93
2022/05/22 11:15:42;;;;;;;8.93;6.90;;;34.10;99.90;;;;;;5045293;28;20124;-92
2022/05/22 11:18:26;;;;;;;10.20;6.50;;;34.10;99.90;;;;;;5045602;28;20025;-89
2022/05/22 11:21:19;;;;;;;7.85;6.50;;;34.00;99.90;;;;;;5043926;28;20114;-92
2022/05/22 11:23:54;;;;;;;8.90;6.30;;;34.50;99.90;;;;;;5050733;28;20088;-92
2022/05/22 11:26:29;;;;;;;9.90;6.68;;;34.30;99.90;;;;;;5069338;28;20116;-89
2022/05/22 11:29:25;;;;;;;8.68;7.10;;;34.40;99.90;;;;;;5051774;28;20029;-89
2022/05/22 11:32:11;;;;;;;8.48;6.50;;;34.50;99.90;;;;;;5051813;28;20035;-89
2022/05/22 11:35:04;;;;;;;13.75;7.05;;;35.00;99.90;;;;;;5066044;28;20386;-95
2022/05/22 11:37:36;;;;;;;12.55;6.97;;;34.10;99.90;;;;;;5058128;28;20510;-91
2022/05/22 11:40:08;;;;;;;11.35;6.80;;;34.40;99.90;;;;;;5074322;28;20064;-92
2022/05/22 11:42:39;;;;;;;13.35;6.85;;;35.20;99.90;;;;;;5044658;28;20367;-91
2022/05/22 11:45:10;;;;;;;11.38;6.63;;;35.60;99.90;;;;;;5041439;28;20025;-89
2022/05/22 11:47:35;;;;;;;12.93;6.90;;;35.10;99.90;;;;;;5038282;28;20022;-90
2022/05/22 11:50:20;;;;;;;8.98;6.50;;;35.30;99.90;;;;;;5038958;28;20036;-90
2022/05/22 11:52:57;;;;;;;9.70;6.75;;;36.20;99.90;;;;;;5049671;28;20489;-91
2022/05/22 11:55:49;;;;;;;11.65;7.18;;;35.50;99.90;;;;;;5040273;28;20036;-90
2022/05/22 11:58:38;;;;;;;10.45;6.90;;;36.20;99.90;;;;;;5050993;28;20434;-90
2022/05/22 12:01:27;;;;;;;10.30;6.50;;;35.60;99.90;;;;;;5045649;28;20498;-90
2022/05/22 12:04:11;;;;;;;7.28;5.53;;;36.50;99.90;;;;;;5045265;28;20040;-90
2022/05/22 12:06:48;;;;;;;11.32;7.00;;;37.90;99.90;;;;;;5048842;28;20039;-90
2022/05/22 12:09:38;;;;;;;7.47;6.07;;;40.20;99.90;;;;;;5045575;28;20043;-89
2022/05/22 12:12:26;;;;;;;11.90;6.38;;;41.30;99.90;;;;;;5052099;28;20048;-90
2022/05/22 12:15:21;;;;;;;10.02;6.68;;;41.10;99.90;;;;;;5051823;28;20036;-91
2022/05/22 12:17:55;;;;;;;26.48;8.40;;;41.30;99.90;;;;;;5038968;28;20523;-91
2022/05/22 12:20:49;;;;;;;11.35;5.90;;;41.30;99.90;;;;;;5038393;28;20048;-90
2022/05/22 12:23:24;;;;;;;11.05;6.10;;;42.80;99.90;;;;;;5035233;28;20056;-91
2022/05/22 12:25:59;;;;;;;11.00;6.20;;;44.00;99.90;;;;;;5061303;28;20038;-91
2022/05/22 12:28:25;;;;;;;10.13;6.50;;;43.20;99.90;;;;;;5040940;28;20048;-91
2022/05/22 12:30:53;;;;;;;11.75;6.38;;;43.50;99.90;;;;;;5042663;28;20184;-91
2022/05/22 12:33:18;;;;;;;8.35;6.00;;;41.50;99.90;;;;;;5039840;28;20497;-91
2022/05/22 12:35:45;;;;;;;8.00;6.55;;;40.30;99.90;;;;;;5050118;28;20060;-91
2022/05/22 12:38:13;;;;;;;8.95;5.80;;;38.10;99.90;;;;;;5052094;28;20021;-91
2022/05/22 12:40:41;;;;;;;11.30;7.05;;;38.60;99.90;;;;;;5048362;28;20029;-91
2022/05/22 12:43:10;;;;;;;10.05;6.40;;;37.90;99.90;;;;;;5042109;28;20045;-91
2022/05/22 12:45:37;;;;;;;11.25;6.10;;;37.70;99.90;;;;;;5042664;28;20409;-91
2022/05/22 12:48:34;;;;;;;52.67;7.95;;;37.10;99.90;;;;;;5050425;28;20488;-91
2022/05/22 12:51:14;;;;;;;13.48;7.57;;;36.80;99.90;;;;;;5039929;28;20110;-91
2022/05/22 12:53:46;;;;;;;12.55;6.78;;;36.50;99.90;;;;;;5037717;28;20500;-91
2022/05/22 12:56:35;;;;;;;10.13;7.13;;;35.90;99.90;;;;;;5066676;28;20036;-91